createdAt,value
2017-11-29T00:01:16.000Z,3.70
2017-11-29T00:03:43.523Z,3.58
2017-11-29T00:06:11.079Z,3.80
2017-11-29T00:08:38.583Z,3.60
2017-11-29T00:11:06.136Z,3.08
2017-11-29T00:13:33.699Z,4.00
2017-11-29T00:16:01.208Z,4.28
2017-11-29T00:18:28.775Z,4.97
2017-11-29T00:20:56.320Z,6.20
2017-11-29T00:23:23.895Z,5.80
2017-11-29T00:25:51.391Z,5.43
2017-11-29T00:28:18.942Z,4.28
2017-11-29T00:30:46.444Z,4.57
2017-11-29T00:33:14.699Z,4.25
2017-11-29T00:35:42.219Z,4.87
2017-11-29T00:38:09.715Z,2.62
2017-11-29T00:40:37.235Z,2.53
2017-11-29T00:43:04.771Z,2.70
2017-11-29T00:45:32.263Z,2.45
2017-11-29T00:47:59.765Z,3.22
2017-11-29T00:50:28.042Z,2.87
2017-11-29T00:52:56.313Z,3.42
2017-11-29T00:55:24.572Z,2.30
2017-11-29T00:57:52.124Z,3.28
2017-11-29T01:00:19.654Z,3.58
2017-11-29T01:02:47.156Z,3.53
2017-11-29T01:05:14.679Z,4.15
2017-11-29T01:07:42.191Z,3.65
2017-11-29T01:10:10.444Z,4.28
2017-11-29T01:12:37.960Z,4.65
2017-11-29T01:15:05.499Z,3.42
2017-11-29T01:17:33.026Z,3.53
2017-11-29T01:20:00.535Z,3.42
2017-11-29T01:22:28.082Z,3.90
2017-11-29T01:24:55.603Z,3.87
2017-11-29T01:27:23.144Z,3.30
2017-11-29T01:29:50.643Z,3.30
2017-11-29T01:32:18.201Z,3.85
2017-11-29T01:34:46.507Z,4.15
2017-11-29T01:37:14.012Z,3.00
2017-11-29T01:39:41.528Z,3.62
2017-11-29T01:42:09.069Z,4.00
2017-11-29T01:44:36.604Z,3.97
2017-11-29T01:47:04.946Z,3.58
2017-11-29T01:49:32.484Z,3.92
2017-11-29T01:51:59.974Z,4.03
2017-11-29T01:54:27.470Z,3.85
2017-11-29T01:56:55.028Z,4.03
2017-11-29T01:59:23.347Z,3.30
2017-11-29T02:01:50.878Z,3.87
2017-11-29T02:04:18.426Z,4.25
2017-11-29T02:06:46.715Z,3.97
2017-11-29T02:09:14.263Z,4.20
2017-11-29T02:11:42.609Z,5.05
2017-11-29T02:14:10.128Z,3.75
2017-11-29T02:16:37.673Z,4.05
2017-11-29T02:19:05.256Z,4.10
2017-11-29T02:21:32.772Z,4.10
2017-11-29T02:24:01.043Z,5.03
2017-11-29T02:26:29.319Z,4.37
2017-11-29T02:28:57.590Z,4.75
2017-11-29T02:31:25.075Z,4.97
2017-11-29T02:33:52.635Z,4.53
2017-11-29T02:36:20.161Z,5.12
2017-11-29T02:38:47.664Z,4.70
2017-11-29T02:41:27.123Z,4.65
2017-11-29T02:43:54.626Z,5.35
2017-11-29T02:46:22.896Z,5.62
2017-11-29T02:48:50.446Z,5.75
2017-11-29T02:51:17.963Z,5.53
2017-11-29T02:53:45.478Z,6.20
2017-11-29T02:56:13.038Z,6.22
2017-11-29T02:58:41.322Z,6.32
2017-11-29T03:01:09.637Z,6.25
2017-11-29T03:03:37.283Z,5.78
2017-11-29T03:06:04.846Z,5.47
2017-11-29T03:08:32.403Z,6.07
2017-11-29T03:10:59.971Z,6.25
2017-11-29T03:13:27.498Z,7.10
2017-11-29T03:15:55.806Z,7.87
2017-11-29T03:18:23.326Z,7.28
2017-11-29T03:20:51.624Z,7.10
2017-11-29T03:23:19.181Z,7.03
2017-11-29T03:25:46.811Z,8.35
2017-11-29T03:28:14.378Z,10.75
2017-11-29T03:30:42.671Z,9.90
2017-11-29T03:33:10.966Z,12.23
2017-11-29T03:35:38.510Z,10.88
2017-11-29T03:38:06.828Z,11.32
2017-11-29T03:40:34.320Z,11.15
2017-11-29T03:43:01.827Z,11.55
2017-11-29T03:45:29.353Z,11.23
2017-11-29T03:47:56.856Z,11.10
2017-11-29T03:50:24.389Z,12.10
2017-11-29T03:52:51.939Z,11.63
2017-11-29T03:55:20.239Z,13.38
2017-11-29T03:57:47.807Z,12.32
2017-11-29T04:00:15.331Z,12.37
2017-11-29T04:02:43.639Z,12.70
2017-11-29T04:05:11.160Z,15.00
2017-11-29T04:07:39.438Z,14.13
2017-11-29T04:10:06.955Z,12.93
2017-11-29T04:12:34.497Z,13.10
2017-11-29T04:15:02.030Z,12.88
2017-11-29T04:17:30.310Z,14.95
2017-11-29T04:19:57.818Z,13.35
2017-11-29T04:22:25.343Z,11.70
2017-11-29T04:24:52.854Z,11.70
2017-11-29T04:27:20.385Z,12.15
2017-11-29T04:29:47.882Z,12.40
2017-11-29T04:32:15.370Z,11.38
2017-11-29T04:34:42.902Z,11.50
2017-11-29T04:37:11.181Z,11.80
2017-11-29T04:39:39.500Z,12.15
2017-11-29T04:42:07.052Z,10.93
2017-11-29T04:44:34.596Z,14.98
2017-11-29T04:47:02.127Z,14.68
2017-11-29T04:49:29.660Z,17.27
2017-11-29T04:51:57.227Z,14.52
2017-11-29T04:54:24.720Z,12.68
2017-11-29T04:56:53.022Z,13.10
2017-11-29T04:59:20.531Z,14.15
2017-11-29T05:01:48.059Z,14.02
2017-11-29T05:04:15.598Z,14.38
2017-11-29T05:06:43.135Z,14.50
2017-11-29T05:09:11.449Z,14.10
2017-11-29T05:11:39.112Z,13.52
2017-11-29T05:14:06.646Z,14.80
2017-11-29T05:16:34.190Z,14.65
2017-11-29T05:19:02.457Z,16.20
2017-11-29T05:21:30.011Z,14.68
2017-11-29T05:23:57.538Z,13.95
2017-11-29T05:26:25.139Z,14.63
2017-11-29T05:28:52.724Z,13.32
2017-11-29T05:31:20.991Z,15.80
2017-11-29T05:33:49.311Z,19.02
2017-11-29T05:36:16.859Z,17.08
2017-11-29T05:38:44.465Z,14.25
2017-11-29T05:41:12.023Z,15.68
2017-11-29T05:43:39.561Z,15.02
2017-11-29T05:46:07.120Z,16.10
2017-11-29T05:48:34.668Z,15.82
2017-11-29T05:51:02.163Z,16.52
2017-11-29T05:53:29.702Z,18.92
2017-11-29T05:55:57.237Z,19.33
2017-11-29T05:58:24.746Z,17.52
2017-11-29T06:00:53.035Z,17.10
2017-11-29T06:03:21.340Z,16.33
2017-11-29T06:05:48.878Z,15.90
2017-11-29T06:08:17.171Z,16.12
2017-11-29T06:10:44.705Z,15.75
2017-11-29T06:13:12.975Z,16.00
2017-11-29T06:15:40.461Z,17.83
2017-11-29T06:18:08.022Z,15.75
2017-11-29T06:20:35.514Z,15.23
2017-11-29T06:23:03.862Z,18.08
2017-11-29T06:25:31.369Z,17.37
2017-11-29T06:27:58.874Z,16.83
2017-11-29T06:30:26.629Z,17.73
2017-11-29T06:32:54.899Z,15.88
2017-11-29T06:35:23.263Z,16.92
2017-11-29T06:37:51.553Z,16.25
2017-11-29T06:40:19.828Z,15.60
2017-11-29T06:42:48.136Z,17.00
2017-11-29T06:45:15.668Z,15.40
2017-11-29T06:47:44.000Z,16.20
2017-11-29T06:50:11.536Z,18.30
2017-11-29T06:52:39.058Z,16.90
2017-11-29T06:55:07.418Z,15.18
2017-11-29T06:57:34.935Z,14.63
2017-11-29T07:00:02.459Z,16.50
2017-11-29T07:02:30.774Z,15.38
2017-11-29T07:04:58.297Z,15.25
2017-11-29T07:07:26.560Z,17.00
2017-11-29T07:09:54.087Z,15.43
2017-11-29T07:12:21.615Z,18.00
2017-11-29T07:14:49.139Z,25.17
2017-11-29T07:17:17.429Z,19.40
2017-11-29T07:19:45.699Z,17.00
2017-11-29T07:22:13.976Z,15.18
2017-11-29T07:24:42.279Z,16.77
2017-11-29T07:27:09.853Z,16.83
2017-11-29T07:29:37.359Z,13.23
2017-11-29T07:32:04.873Z,16.20
2017-11-29T07:34:32.465Z,15.68
2017-11-29T07:36:59.989Z,16.65
2017-11-29T07:39:28.264Z,17.10
2017-11-29T07:41:55.782Z,17.40
2017-11-29T07:44:24.206Z,15.02
2017-11-29T07:46:51.707Z,15.98
2017-11-29T07:49:19.223Z,15.23
2017-11-29T07:51:46.783Z,14.95
2017-11-29T07:54:14.285Z,15.45
2017-11-29T07:56:41.783Z,15.65
2017-11-29T07:59:10.159Z,16.30
2017-11-29T08:01:37.696Z,14.82
2017-11-29T08:04:05.974Z,14.68
2017-11-29T08:06:34.239Z,18.08
2017-11-29T08:09:01.817Z,15.48
2017-11-29T08:11:29.328Z,16.42
2017-11-29T08:13:56.872Z,16.70
2017-11-29T08:16:24.365Z,17.40
2017-11-29T08:18:51.885Z,15.45
2017-11-29T08:21:19.432Z,14.25
2017-11-29T08:23:46.979Z,16.40
2017-11-29T08:26:15.281Z,14.27
2017-11-29T08:28:42.792Z,14.77
2017-11-29T08:31:10.341Z,14.82
2017-11-29T08:33:37.962Z,13.07
2017-11-29T08:36:05.457Z,14.60
2017-11-29T08:38:33.080Z,16.00
2017-11-29T08:41:00.566Z,15.18
2017-11-29T08:43:28.075Z,14.30
2017-11-29T08:45:55.610Z,16.87
2017-11-29T08:48:23.163Z,15.88
2017-11-29T08:50:50.722Z,15.07
2017-11-29T08:53:18.243Z,13.43
2017-11-29T08:55:45.755Z,12.75
2017-11-29T08:58:14.093Z,11.82
2017-11-29T09:00:41.602Z,12.50
2017-11-29T09:03:09.895Z,11.57
2017-11-29T09:05:37.417Z,12.20
2017-11-29T09:08:04.938Z,12.30
2017-11-29T09:10:32.458Z,12.80
2017-11-29T09:13:00.731Z,13.95
2017-11-29T09:15:29.036Z,12.82
2017-11-29T09:17:56.530Z,11.32
2017-11-29T09:20:24.023Z,12.13
2017-11-29T09:22:52.332Z,9.23
2017-11-29T09:25:19.892Z,8.82
2017-11-29T09:27:47.415Z,8.18
2017-11-29T09:30:15.727Z,7.95
2017-11-29T09:32:43.274Z,8.90
2017-11-29T09:35:10.807Z,10.48
2017-11-29T09:37:39.090Z,9.80
2017-11-29T09:40:07.396Z,9.75
2017-11-29T09:42:34.899Z,10.10
2017-11-29T09:45:02.398Z,10.85
2017-11-29T09:47:29.943Z,10.65
2017-11-29T09:49:58.227Z,9.77
2017-11-29T09:52:25.781Z,9.35
2017-11-29T09:54:54.078Z,8.93
2017-11-29T09:57:21.631Z,7.78
2017-11-29T09:59:49.149Z,8.02
2017-11-29T10:02:16.715Z,8.60
2017-11-29T10:04:45.027Z,9.68
2017-11-29T10:07:12.915Z,7.25
2017-11-29T10:09:40.453Z,8.13
2017-11-29T10:12:07.996Z,8.00
2017-11-29T10:14:36.283Z,6.93
2017-11-29T10:17:03.815Z,8.20
2017-11-29T10:19:31.320Z,8.18
2017-11-29T10:21:58.835Z,6.20
2017-11-29T10:24:26.384Z,7.45
2017-11-29T10:26:53.892Z,7.35
2017-11-29T10:29:21.481Z,6.75
2017-11-29T10:31:49.025Z,6.80
2017-11-29T10:34:16.547Z,6.10
2017-11-29T10:36:44.872Z,6.12
2017-11-29T10:39:12.434Z,8.90
2017-11-29T10:41:40.042Z,18.50
2017-11-29T10:44:08.354Z,8.30
2017-11-29T10:46:35.919Z,7.68
2017-11-29T10:49:03.479Z,6.78
2017-11-29T10:51:31.041Z,7.25
2017-11-29T10:53:58.593Z,6.65
2017-11-29T10:56:26.182Z,7.20
2017-11-29T10:58:53.707Z,6.90
2017-11-29T11:01:21.221Z,6.43
2017-11-29T11:03:48.735Z,6.50
2017-11-29T11:06:16.279Z,6.20
2017-11-29T11:08:43.791Z,7.07
2017-11-29T11:11:11.351Z,5.12
2017-11-29T11:13:38.869Z,6.20
2017-11-29T11:16:06.398Z,6.82
2017-11-29T11:18:34.751Z,5.68
2017-11-29T11:21:02.271Z,5.10
2017-11-29T11:23:30.553Z,5.97
2017-11-29T11:25:58.079Z,5.35
2017-11-29T11:28:26.369Z,5.68
2017-11-29T11:30:54.023Z,5.70
2017-11-29T11:33:21.559Z,7.35
2017-11-29T11:35:49.846Z,5.32
2017-11-29T11:38:18.163Z,8.30
2017-11-29T11:40:45.689Z,5.55
2017-11-29T11:43:13.211Z,7.25
2017-11-29T11:45:40.739Z,5.47
2017-11-29T11:48:09.012Z,5.50
2017-11-29T11:50:36.571Z,6.05
2017-11-29T11:53:04.120Z,6.07
2017-11-29T11:55:31.651Z,6.22
2017-11-29T11:57:59.961Z,5.90
2017-11-29T12:00:27.536Z,5.90
2017-11-29T12:02:55.113Z,6.65
2017-11-29T12:05:22.731Z,6.95
2017-11-29T12:07:50.295Z,5.70
2017-11-29T12:10:18.020Z,5.78
2017-11-29T12:12:45.692Z,7.25
2017-11-29T12:15:13.252Z,6.30
2017-11-29T12:17:41.592Z,6.53
2017-11-29T12:20:09.156Z,7.03
2017-11-29T12:22:36.745Z,6.90
2017-11-29T12:25:05.117Z,7.10
2017-11-29T12:27:33.776Z,6.60
2017-11-29T12:30:01.353Z,7.00
2017-11-29T12:32:28.941Z,8.90
2017-11-29T12:34:57.262Z,7.03
2017-11-29T12:37:24.779Z,7.45
2017-11-29T12:39:52.282Z,7.53
2017-11-29T12:42:19.794Z,7.05
2017-11-29T12:44:47.331Z,7.53
2017-11-29T12:47:14.949Z,7.32
2017-11-29T12:49:54.490Z,8.55
2017-11-29T12:52:22.164Z,7.82
2017-11-29T12:54:49.675Z,8.25
2017-11-29T12:57:17.262Z,7.25
2017-11-29T12:59:44.796Z,7.32
2017-11-29T13:02:13.070Z,7.62
2017-11-29T13:04:41.417Z,7.85
2017-11-29T13:07:09.004Z,6.97
2017-11-29T13:09:37.333Z,7.10
2017-11-29T13:12:04.922Z,6.65
2017-11-29T13:14:32.477Z,7.60
2017-11-29T13:17:00.044Z,7.85
2017-11-29T13:19:27.562Z,6.60
2017-11-29T13:21:55.119Z,7.22
2017-11-29T13:24:22.625Z,7.57
2017-11-29T13:26:50.270Z,7.90
2017-11-29T13:29:17.785Z,6.80
2017-11-29T13:31:45.301Z,8.30
2017-11-29T13:34:12.906Z,7.87
2017-11-29T13:36:40.487Z,6.85
2017-11-29T13:39:08.019Z,8.27
2017-11-29T13:41:35.675Z,8.68
2017-11-29T13:44:03.243Z,8.38
2017-11-29T13:46:30.779Z,16.30
2017-11-29T13:48:59.136Z,10.32
2017-11-29T13:51:26.663Z,7.70
2017-11-29T13:53:54.200Z,6.70
2017-11-29T13:56:21.765Z,5.95
2017-11-29T13:58:49.321Z,7.18
2017-11-29T14:01:16.895Z,7.55
2017-11-29T14:03:44.458Z,7.40
2017-11-29T14:06:12.013Z,13.43
2017-11-29T14:08:39.527Z,8.25
2017-11-29T14:11:07.175Z,8.13
2017-11-29T14:13:34.679Z,8.57
2017-11-29T14:16:02.224Z,7.93
2017-11-29T14:18:30.559Z,7.68
2017-11-29T14:20:58.119Z,7.10
2017-11-29T14:23:25.647Z,5.95
2017-11-29T14:25:53.243Z,6.07
2017-11-29T14:28:20.778Z,6.32
2017-11-29T14:30:48.352Z,6.95
2017-11-29T14:33:15.907Z,7.70
2017-11-29T14:35:43.467Z,6.18
2017-11-29T14:38:10.991Z,6.57
2017-11-29T14:40:38.590Z,6.57
2017-11-29T14:43:06.140Z,6.90
2017-11-29T14:45:33.672Z,7.12
2017-11-29T14:48:01.354Z,8.00
2017-11-29T14:50:28.862Z,7.60
2017-11-29T14:52:56.443Z,7.60
2017-11-29T14:55:24.834Z,8.50
2017-11-29T14:57:52.339Z,9.10
2017-11-29T15:00:19.900Z,8.40
2017-11-29T15:02:47.488Z,8.48
2017-11-29T15:05:15.912Z,8.23
2017-11-29T15:07:43.443Z,9.25
2017-11-29T15:10:11.047Z,8.18
2017-11-29T15:12:38.576Z,8.00
2017-11-29T15:15:06.168Z,8.02
2017-11-29T15:17:34.567Z,8.95
2017-11-29T15:20:02.123Z,7.57
2017-11-29T15:22:33.079Z,7.37
2017-11-29T15:25:00.659Z,6.72
2017-11-29T15:27:28.952Z,6.30
2017-11-29T15:29:56.531Z,6.62
2017-11-29T15:32:24.117Z,5.70
2017-11-29T15:34:51.612Z,5.85
2017-11-29T15:37:19.970Z,6.65
2017-11-29T15:39:47.587Z,7.20
2017-11-29T15:42:15.136Z,6.62
2017-11-29T15:44:43.447Z,6.90
2017-11-29T15:47:11.089Z,7.60
2017-11-29T15:49:38.642Z,6.45
2017-11-29T15:52:06.156Z,8.68
2017-11-29T15:54:34.515Z,7.18
2017-11-29T15:57:02.150Z,7.15
2017-11-29T15:59:29.703Z,7.43
2017-11-29T16:01:57.248Z,8.13
2017-11-29T16:04:24.738Z,7.00
2017-11-29T16:06:52.278Z,9.35
2017-11-29T16:09:19.858Z,6.95
2017-11-29T16:11:47.447Z,7.55
2017-11-29T16:14:14.972Z,6.93
2017-11-29T16:16:42.535Z,6.60
2017-11-29T16:19:10.099Z,7.55
2017-11-29T16:21:37.661Z,7.95
2017-11-29T16:24:05.227Z,8.25
2017-11-29T16:26:32.756Z,8.38
2017-11-29T16:29:01.085Z,8.07
2017-11-29T16:31:29.450Z,6.70
2017-11-29T16:33:57.028Z,7.35
2017-11-29T16:36:25.352Z,6.78
2017-11-29T16:38:52.931Z,6.62
2017-11-29T16:41:20.506Z,9.70
2017-11-29T16:43:48.062Z,7.60
2017-11-29T16:46:15.667Z,7.10
2017-11-29T16:48:43.947Z,8.85
2017-11-29T16:51:11.478Z,8.15
2017-11-29T16:53:39.042Z,11.30
2017-11-29T16:56:06.611Z,10.85
2017-11-29T16:58:34.168Z,9.10
2017-11-29T17:01:02.587Z,11.25
2017-11-29T17:03:30.115Z,11.90
2017-11-29T17:05:58.527Z,11.40
2017-11-29T17:08:26.130Z,11.55
2017-11-29T17:10:54.435Z,10.82
2017-11-29T17:13:22.781Z,11.25
2017-11-29T17:15:50.359Z,11.40
2017-11-29T17:18:18.737Z,11.50
2017-11-29T17:20:47.064Z,11.15
2017-11-29T17:23:14.635Z,11.90
2017-11-29T17:25:42.190Z,10.38
2017-11-29T17:28:09.763Z,10.90
2017-11-29T17:30:37.339Z,9.82
2017-11-29T17:33:04.879Z,9.80
2017-11-29T17:35:32.421Z,9.70
2017-11-29T17:38:00.031Z,9.90
2017-11-29T17:40:27.605Z,11.98
2017-11-29T17:42:55.202Z,13.65
2017-11-29T17:45:22.793Z,10.98
2017-11-29T17:47:50.376Z,10.88
2017-11-29T17:50:18.730Z,12.52
2017-11-29T17:52:46.327Z,11.32
2017-11-29T17:55:14.712Z,10.82
2017-11-29T17:57:42.356Z,10.52
2017-11-29T18:00:10.751Z,11.30
2017-11-29T18:02:38.388Z,11.70
2017-11-29T18:05:05.991Z,10.52
2017-11-29T18:07:33.641Z,12.88
2017-11-29T18:10:01.297Z,12.02
2017-11-29T18:12:28.858Z,12.50
2017-11-29T18:14:56.434Z,12.90
2017-11-29T18:17:24.166Z,10.02
2017-11-29T18:19:52.540Z,10.55
2017-11-29T18:22:20.916Z,12.88
2017-11-29T18:24:50.725Z,10.45
2017-11-29T18:27:18.414Z,9.73
2017-11-29T18:29:46.052Z,11.57
2017-11-29T18:32:13.623Z,9.55
2017-11-29T18:34:42.457Z,14.02
2017-11-29T18:37:10.038Z,10.52
2017-11-29T18:39:37.612Z,10.63
2017-11-29T18:42:05.168Z,10.05
2017-11-29T18:44:32.844Z,9.85
2017-11-29T18:47:01.254Z,10.85
2017-11-29T18:49:28.853Z,11.73
2017-11-29T18:51:56.544Z,10.27
2017-11-29T18:54:25.472Z,9.70
2017-11-29T18:56:53.074Z,9.50
2017-11-29T18:59:20.746Z,10.48
2017-11-29T19:01:48.382Z,10.45
2017-11-29T19:04:16.048Z,16.62
2017-11-29T19:06:44.319Z,13.57
2017-11-29T19:09:12.584Z,11.82
2017-11-29T19:11:40.169Z,12.50
2017-11-29T19:14:07.763Z,10.15
2017-11-29T19:16:35.377Z,9.63
2017-11-29T19:19:02.970Z,8.85
2017-11-29T19:21:30.575Z,8.27
2017-11-29T19:23:58.225Z,9.10
2017-11-29T19:26:25.857Z,8.48
2017-11-29T19:28:53.493Z,36.13
2017-11-29T19:31:21.053Z,11.12
2017-11-29T19:33:48.619Z,9.70
2017-11-29T19:36:16.210Z,8.80
2017-11-29T19:38:43.784Z,9.75
2017-11-29T19:41:12.102Z,10.60
2017-11-29T19:43:39.793Z,9.52
2017-11-29T19:46:07.396Z,10.50
2017-11-29T19:48:34.999Z,9.48
2017-11-29T19:51:02.609Z,11.57
2017-11-29T19:53:30.936Z,10.43
2017-11-29T19:55:58.596Z,9.82
2017-11-29T19:58:26.223Z,9.15
2017-11-29T20:00:53.929Z,10.05
2017-11-29T20:03:21.604Z,9.10
2017-11-29T20:05:49.375Z,11.82
2017-11-29T20:08:17.868Z,11.27
2017-11-29T20:10:45.503Z,11.73
2017-11-29T20:13:13.129Z,12.45
2017-11-29T20:15:40.682Z,12.02
2017-11-29T20:18:08.265Z,13.00
2017-11-29T20:20:35.886Z,13.43
2017-11-29T20:23:04.232Z,12.73
2017-11-29T20:25:31.865Z,13.05
2017-11-29T20:27:59.426Z,11.80
2017-11-29T20:30:26.988Z,12.95
2017-11-29T20:32:54.508Z,13.60
2017-11-29T20:35:22.975Z,13.48
2017-11-29T20:37:51.333Z,12.73
2017-11-29T20:40:18.911Z,13.40
2017-11-29T20:42:46.553Z,11.10
2017-11-29T20:45:14.106Z,12.73
2017-11-29T20:47:42.457Z,13.80
2017-11-29T20:50:10.069Z,13.23
2017-11-29T20:52:50.253Z,13.68
2017-11-29T20:55:17.801Z,14.10
2017-11-29T20:57:46.095Z,13.57
2017-11-29T21:00:13.664Z,14.80
2017-11-29T21:02:41.242Z,16.23
2017-11-29T21:05:08.808Z,13.13
2017-11-29T21:07:36.365Z,14.40
2017-11-29T21:10:03.966Z,15.32
2017-11-29T21:12:33.222Z,14.48
2017-11-29T21:15:00.829Z,16.05
2017-11-29T21:17:29.213Z,17.12
2017-11-29T21:19:57.540Z,15.82
2017-11-29T21:22:25.108Z,15.90
2017-11-29T21:24:52.630Z,17.02
2017-11-29T21:27:20.209Z,18.50
2017-11-29T21:29:47.743Z,15.02
2017-11-29T21:32:16.079Z,14.70
2017-11-29T21:34:43.676Z,15.02
2017-11-29T21:37:12.007Z,16.95
2017-11-29T21:39:39.567Z,24.30
2017-11-29T21:42:07.158Z,19.17
2017-11-29T21:44:34.688Z,18.95
2017-11-29T21:47:02.249Z,18.58
2017-11-29T21:49:29.820Z,19.42
2017-11-29T21:51:57.401Z,20.65
2017-11-29T21:54:25.740Z,18.15
2017-11-29T21:56:53.297Z,19.73
2017-11-29T21:59:20.856Z,18.77
2017-11-29T22:01:48.451Z,17.40
2017-11-29T22:04:17.254Z,16.35
2017-11-29T22:06:44.860Z,15.95
2017-11-29T22:09:12.470Z,19.58
2017-11-29T22:11:41.668Z,49.58
2017-11-29T22:14:10.000Z,19.58
2017-11-29T22:16:38.345Z,18.75
2017-11-29T22:19:05.966Z,18.33
2017-11-29T22:21:34.358Z,18.95
2017-11-29T22:24:01.967Z,21.20
2017-11-29T22:26:29.723Z,30.02
2017-11-29T22:28:57.421Z,18.80
2017-11-29T22:31:24.976Z,20.02
2017-11-29T22:33:52.484Z,18.62
2017-11-29T22:36:20.847Z,17.08
2017-11-29T22:38:49.219Z,18.92
2017-11-29T22:41:16.828Z,17.62
2017-11-29T22:43:44.331Z,19.12
2017-11-29T22:46:11.981Z,20.73
2017-11-29T22:48:39.545Z,30.37
2017-11-29T22:51:07.145Z,19.65
2017-11-29T22:53:34.736Z,18.75
2017-11-29T22:56:02.342Z,19.60
2017-11-29T22:58:29.950Z,18.17
2017-11-29T23:00:57.530Z,20.95
2017-11-29T23:03:25.088Z,20.40
2017-11-29T23:05:52.601Z,19.45
2017-11-29T23:08:20.884Z,21.02
2017-11-29T23:10:49.232Z,20.62
2017-11-29T23:13:16.788Z,17.90
2017-11-29T23:15:44.370Z,20.20
2017-11-29T23:18:12.689Z,20.02
2017-11-29T23:20:40.250Z,20.00
2017-11-29T23:23:07.799Z,20.02
2017-11-29T23:25:35.331Z,22.00
2017-11-29T23:28:03.624Z,22.13
2017-11-29T23:30:31.191Z,18.98
2017-11-29T23:32:58.751Z,22.55
2017-11-29T23:35:26.299Z,20.35
2017-11-29T23:37:54.652Z,19.37
2017-11-29T23:40:22.216Z,21.48
2017-11-29T23:42:49.738Z,21.00
2017-11-29T23:45:17.327Z,22.80
2017-11-29T23:47:44.871Z,22.35
2017-11-29T23:50:12.463Z,20.62
2017-11-29T23:52:40.803Z,20.30
2017-11-29T23:55:08.336Z,24.20
2017-11-29T23:57:35.846Z,21.30
